createdAt,value
2022-12-29T00:00:06.987Z,1.20
2022-12-29T00:02:33.906Z,0.60
2022-12-29T00:05:00.570Z,0.60
2022-12-29T00:07:27.201Z,0.60
2022-12-29T00:09:53.909Z,0.60
2022-12-29T00:12:20.538Z,0.60
2022-12-29T00:15:05.593Z,0.60
2022-12-29T00:17:32.170Z,0.50
2022-12-29T00:20:17.224Z,1.10
2022-12-29T00:23:03.087Z,0.60
2022-12-29T00:25:48.421Z,0.57
2022-12-29T00:28:33.752Z,0.60
2022-12-29T00:31:30.636Z,0.60
2022-12-29T00:34:15.869Z,0.50
2022-12-29T00:36:45.388Z,0.50
2022-12-29T00:39:34.637Z,0.50
2022-12-29T00:42:24.212Z,0.50
2022-12-29T00:44:50.848Z,0.50
2022-12-29T00:47:17.479Z,0.73
2022-12-29T00:49:44.974Z,0.60
2022-12-29T00:52:13.961Z,0.50
2022-12-29T00:54:41.724Z,0.60
2022-12-29T00:57:10.788Z,0.50
2022-12-29T00:59:38.501Z,2.80
2022-12-29T01:02:05.601Z,0.53
2022-12-29T01:04:32.610Z,0.50
2022-12-29T01:06:59.934Z,0.80
2022-12-29T01:09:44.925Z,0.40
2022-12-29T01:12:12.286Z,0.50
2022-12-29T01:14:39.277Z,0.50
2022-12-29T01:17:06.439Z,0.60
2022-12-29T01:19:33.215Z,0.50
2022-12-29T01:22:01.009Z,0.50
2022-12-29T01:24:27.706Z,0.50
2022-12-29T01:26:55.380Z,0.50
2022-12-29T01:29:22.174Z,0.60
2022-12-29T01:31:50.395Z,0.50
2022-12-29T01:34:17.380Z,0.73
2022-12-29T01:36:44.941Z,0.50
2022-12-29T01:39:11.766Z,0.80
2022-12-29T01:41:38.509Z,0.50
2022-12-29T01:44:43.524Z,1.47
2022-12-29T01:47:10.155Z,0.60
2022-12-29T01:49:36.938Z,0.50
2022-12-29T01:52:06.975Z,0.50
2022-12-29T01:54:33.826Z,0.60
2022-12-29T01:57:04.384Z,0.50
2022-12-29T01:59:35.415Z,0.50
2022-12-29T02:02:02.660Z,0.60
2022-12-29T02:04:32.173Z,0.60
2022-12-29T02:07:04.064Z,0.60
2022-12-29T02:09:31.561Z,0.60
2022-12-29T02:11:59.617Z,0.57
2022-12-29T02:14:26.364Z,0.60
2022-12-29T02:17:17.736Z,0.63
2022-12-29T02:20:21.277Z,0.50
2022-12-29T02:23:20.933Z,0.50
2022-12-29T02:26:01.926Z,0.50
2022-12-29T02:29:07.399Z,0.60
2022-12-29T02:31:51.736Z,0.50
2022-12-29T02:34:39.271Z,0.50
2022-12-29T02:37:11.433Z,0.60
2022-12-29T02:40:06.757Z,0.50
2022-12-29T02:42:49.813Z,0.63
2022-12-29T02:45:32.834Z,1.90
2022-12-29T02:48:24.304Z,0.60
2022-12-29T02:51:03.143Z,0.50
2022-12-29T02:53:51.495Z,0.60
2022-12-29T02:56:18.760Z,0.80
2022-12-29T02:58:45.405Z,0.60
2022-12-29T03:02:12.493Z,0.60
2022-12-29T03:05:10.690Z,0.60
2022-12-29T03:07:46.363Z,0.60
2022-12-29T03:10:39.288Z,0.70
2022-12-29T03:14:03.946Z,0.50
2022-12-29T03:16:43.453Z,0.97
2022-12-29T03:19:31.353Z,0.60
2022-12-29T03:22:21.122Z,0.77
2022-12-29T03:24:52.862Z,0.60
2022-12-29T03:27:44.708Z,0.50
2022-12-29T03:30:12.502Z,0.60
2022-12-29T03:32:51.317Z,0.60
2022-12-29T03:35:21.773Z,0.50
2022-12-29T03:38:08.441Z,0.50
2022-12-29T03:40:35.556Z,0.50
2022-12-29T03:43:04.062Z,0.77
2022-12-29T03:45:30.658Z,0.60
2022-12-29T03:47:57.337Z,0.60
2022-12-29T03:50:23.937Z,0.50
2022-12-29T03:52:50.604Z,1.13
2022-12-29T03:55:17.364Z,0.50
2022-12-29T03:57:45.352Z,0.50
2022-12-29T04:00:12.596Z,0.50
2022-12-29T04:02:39.487Z,0.60
2022-12-29T04:05:06.936Z,0.50
2022-12-29T04:07:34.260Z,0.60
2022-12-29T04:10:00.888Z,0.60
2022-12-29T04:12:27.626Z,0.50
2022-12-29T04:14:54.262Z,0.53
2022-12-29T04:17:20.838Z,0.50
2022-12-29T04:19:47.459Z,0.60
2022-12-29T04:22:14.102Z,0.50
2022-12-29T04:24:41.018Z,0.60
2022-12-29T04:27:07.645Z,0.60
2022-12-29T04:29:34.336Z,0.50
2022-12-29T04:32:00.964Z,0.50
2022-12-29T04:34:27.563Z,0.60
2022-12-29T04:36:54.799Z,0.50
2022-12-29T04:39:21.472Z,0.50
2022-12-29T04:41:48.084Z,0.50
2022-12-29T04:44:14.694Z,0.60
2022-12-29T04:46:41.360Z,0.50
2022-12-29T04:49:09.511Z,0.50
2022-12-29T04:51:36.491Z,0.80
2022-12-29T04:54:03.249Z,0.50
2022-12-29T04:56:29.881Z,0.50
2022-12-29T04:58:56.453Z,0.50
2022-12-29T05:01:23.136Z,0.80
2022-12-29T05:03:52.496Z,0.70
2022-12-29T05:06:19.157Z,0.60
2022-12-29T05:08:45.883Z,0.60
2022-12-29T05:11:12.594Z,0.60
2022-12-29T05:13:39.194Z,0.50
2022-12-29T05:16:06.236Z,0.60
2022-12-29T05:18:32.893Z,0.60
2022-12-29T05:21:00.182Z,0.50
2022-12-29T05:23:26.780Z,0.50
2022-12-29T05:25:53.374Z,0.60
2022-12-29T05:28:19.956Z,0.60
2022-12-29T05:30:50.503Z,0.53
2022-12-29T05:33:18.843Z,0.60
2022-12-29T05:35:45.984Z,0.60
2022-12-29T05:38:12.629Z,0.60
2022-12-29T05:40:39.984Z,0.50
2022-12-29T05:43:06.554Z,0.60
2022-12-29T05:45:34.288Z,0.50
2022-12-29T05:48:00.882Z,0.83
2022-12-29T05:50:27.977Z,1.00
2022-12-29T05:52:54.609Z,2.30
2022-12-29T05:55:21.318Z,0.60
2022-12-29T05:57:48.030Z,0.50
2022-12-29T06:00:15.193Z,0.60
2022-12-29T06:02:43.023Z,0.70
2022-12-29T06:05:09.946Z,0.70
2022-12-29T06:07:36.570Z,0.60
2022-12-29T06:10:03.673Z,0.87
2022-12-29T06:12:30.280Z,0.50
2022-12-29T06:14:56.909Z,0.60
2022-12-29T06:17:23.597Z,0.70
2022-12-29T06:19:50.466Z,0.60
2022-12-29T06:22:17.083Z,0.60
2022-12-29T06:24:44.241Z,0.60
2022-12-29T06:27:10.822Z,0.50
2022-12-29T06:29:37.986Z,1.53
2022-12-29T06:32:04.976Z,0.60
2022-12-29T06:34:31.640Z,0.60
2022-12-29T06:36:58.651Z,0.57
2022-12-29T06:39:25.300Z,0.60
2022-12-29T06:41:55.300Z,0.60
2022-12-29T06:44:22.926Z,0.50
2022-12-29T06:46:50.284Z,0.60
2022-12-29T06:49:17.280Z,0.60
2022-12-29T06:51:43.938Z,0.60
2022-12-29T06:54:10.648Z,0.60
2022-12-29T06:56:37.279Z,0.60
2022-12-29T06:59:04.134Z,0.70
2022-12-29T07:01:30.903Z,0.60
2022-12-29T07:03:58.382Z,0.60
2022-12-29T07:06:25.073Z,0.60
2022-12-29T07:08:51.749Z,0.60
2022-12-29T07:11:18.348Z,0.60
2022-12-29T07:13:45.086Z,1.17
2022-12-29T07:16:11.925Z,0.60
2022-12-29T07:18:38.723Z,0.60
2022-12-29T07:21:05.616Z,0.50
2022-12-29T07:23:32.373Z,0.60
2022-12-29T07:26:07.417Z,0.60
2022-12-29T07:28:35.677Z,0.60
2022-12-29T07:31:02.601Z,1.07
2022-12-29T07:33:30.812Z,0.60
2022-12-29T07:36:00.244Z,0.73
2022-12-29T07:38:26.890Z,0.60
2022-12-29T07:40:58.134Z,0.60
2022-12-29T07:43:24.863Z,0.60
2022-12-29T07:45:51.574Z,0.60
2022-12-29T07:48:18.175Z,1.20
2022-12-29T07:50:44.793Z,0.73
2022-12-29T07:53:11.753Z,0.60
2022-12-29T07:55:38.343Z,0.60
2022-12-29T07:58:04.973Z,0.60
2022-12-29T08:00:31.579Z,0.60
2022-12-29T08:02:58.220Z,1.33
2022-12-29T08:05:24.838Z,0.60
2022-12-29T08:07:51.509Z,0.60
2022-12-29T08:10:18.605Z,0.60
2022-12-29T08:12:45.284Z,0.50
2022-12-29T08:15:13.130Z,1.37
2022-12-29T08:17:39.865Z,0.50
2022-12-29T08:20:07.028Z,0.50
2022-12-29T08:22:33.626Z,0.60
2022-12-29T08:25:00.216Z,0.60
2022-12-29T08:27:26.923Z,0.60
2022-12-29T08:29:53.629Z,1.63
2022-12-29T08:32:20.282Z,0.50
2022-12-29T08:34:47.004Z,0.60
2022-12-29T08:37:13.610Z,0.50
2022-12-29T08:39:40.260Z,0.50
2022-12-29T08:42:07.967Z,0.60
2022-12-29T08:44:34.595Z,0.50
2022-12-29T08:47:01.225Z,0.97
2022-12-29T08:49:27.806Z,0.60
2022-12-29T08:51:54.425Z,0.50
2022-12-29T08:54:21.010Z,0.50
2022-12-29T08:56:47.649Z,0.60
2022-12-29T08:59:14.377Z,0.60
2022-12-29T09:01:41.518Z,0.60
2022-12-29T09:04:17.828Z,0.50
2022-12-29T09:06:45.854Z,0.60
2022-12-29T09:09:13.340Z,0.60
2022-12-29T09:11:39.985Z,0.60
2022-12-29T09:14:06.655Z,0.77
2022-12-29T09:16:33.407Z,0.93
2022-12-29T09:19:00.710Z,0.60
2022-12-29T09:21:27.366Z,0.67
2022-12-29T09:23:54.024Z,0.50
2022-12-29T09:26:20.738Z,0.50
2022-12-29T09:28:48.028Z,0.50
2022-12-29T09:31:14.945Z,1.90
2022-12-29T09:33:41.616Z,0.50
2022-12-29T09:36:09.699Z,0.60
2022-12-29T09:38:36.878Z,0.57
2022-12-29T09:41:23.578Z,1.37
2022-12-29T09:44:25.761Z,0.60
2022-12-29T09:46:55.279Z,1.10
2022-12-29T09:49:46.759Z,0.50
2022-12-29T09:52:22.068Z,0.80
2022-12-29T09:55:11.958Z,0.60
2022-12-29T09:58:00.811Z,0.60
2022-12-29T10:00:58.366Z,0.57
2022-12-29T10:03:33.290Z,0.60
2022-12-29T10:06:13.033Z,0.70
2022-12-29T10:09:03.143Z,0.50
2022-12-29T10:11:33.090Z,1.47
2022-12-29T10:14:16.276Z,1.10
2022-12-29T10:16:48.788Z,0.53
2022-12-29T10:19:51.835Z,0.60
2022-12-29T10:22:53.810Z,0.73
2022-12-29T10:25:27.144Z,1.03
2022-12-29T10:27:57.698Z,3.80
2022-12-29T10:30:24.824Z,0.60
2022-12-29T10:32:59.090Z,0.60
2022-12-29T10:35:39.934Z,0.60
2022-12-29T10:38:42.285Z,0.60
2022-12-29T10:41:28.469Z,0.80
2022-12-29T10:43:57.781Z,0.60
2022-12-29T10:46:29.329Z,1.90
2022-12-29T10:48:55.939Z,0.60
2022-12-29T10:51:28.919Z,0.63
2022-12-29T10:54:05.767Z,1.37
2022-12-29T10:56:45.916Z,0.50
2022-12-29T10:59:26.694Z,0.67
2022-12-29T11:02:11.962Z,2.60
2022-12-29T11:05:00.743Z,0.93
2022-12-29T11:07:27.858Z,0.60
2022-12-29T11:09:54.876Z,0.50
2022-12-29T11:12:31.537Z,0.50
2022-12-29T11:15:08.541Z,1.37
2022-12-29T11:18:04.579Z,0.60
2022-12-29T11:20:40.555Z,2.47
2022-12-29T11:23:22.831Z,0.53
2022-12-29T11:26:10.776Z,0.50
2022-12-29T11:28:38.846Z,1.37
2022-12-29T11:31:07.332Z,0.60
2022-12-29T11:33:36.178Z,0.57
2022-12-29T11:36:17.128Z,0.60
2022-12-29T11:38:50.124Z,0.60
2022-12-29T11:41:26.088Z,0.57
2022-12-29T11:43:56.153Z,0.60
2022-12-29T11:46:33.465Z,0.63
2022-12-29T11:49:01.523Z,0.50
2022-12-29T11:51:45.636Z,0.60
2022-12-29T11:54:28.852Z,0.50
2022-12-29T11:56:56.394Z,2.27
2022-12-29T11:59:41.458Z,0.60
2022-12-29T12:02:31.072Z,0.57
2022-12-29T12:05:21.105Z,0.57
2022-12-29T12:08:05.167Z,0.50
2022-12-29T12:10:47.502Z,0.60
2022-12-29T12:13:30.570Z,0.60
2022-12-29T12:16:13.518Z,2.53
2022-12-29T12:18:47.236Z,0.60
2022-12-29T12:21:28.748Z,0.60
2022-12-29T12:24:16.206Z,0.60
2022-12-29T12:27:03.622Z,0.80
2022-12-29T12:29:37.459Z,0.60
2022-12-29T12:32:20.315Z,0.90
2022-12-29T12:34:49.045Z,0.70
2022-12-29T12:37:43.734Z,0.70
2022-12-29T12:40:35.709Z,0.60
2022-12-29T12:43:23.901Z,0.60
2022-12-29T12:45:53.537Z,0.83
2022-12-29T12:48:26.221Z,0.60
2022-12-29T12:51:00.648Z,0.50
2022-12-29T12:53:50.187Z,0.70
2022-12-29T12:56:33.978Z,0.60
2022-12-29T12:59:31.000Z,0.60
2022-12-29T13:02:26.590Z,0.70
2022-12-29T13:05:22.652Z,0.57
2022-12-29T13:08:12.094Z,0.70
2022-12-29T13:10:56.425Z,0.60
2022-12-29T13:13:39.796Z,0.50
2022-12-29T13:16:44.827Z,0.60
2022-12-29T13:19:30.351Z,0.80
2022-12-29T13:22:08.800Z,0.50
2022-12-29T13:24:56.944Z,0.50
2022-12-29T13:27:44.535Z,0.63
2022-12-29T13:30:19.000Z,0.60
2022-12-29T13:33:08.812Z,0.60
2022-12-29T13:36:01.052Z,0.60
2022-12-29T13:38:34.935Z,0.60
2022-12-29T13:41:13.955Z,0.67
2022-12-29T13:43:43.527Z,0.60
2022-12-29T13:46:17.671Z,0.60
2022-12-29T13:48:54.921Z,1.33
2022-12-29T13:51:28.003Z,0.60
2022-12-29T13:54:08.634Z,0.60
2022-12-29T13:56:49.483Z,0.90
2022-12-29T13:59:41.795Z,1.67
2022-12-29T14:02:25.547Z,0.70
2022-12-29T14:05:03.821Z,0.70
2022-12-29T14:07:38.486Z,0.60
2022-12-29T14:10:06.014Z,0.70
2022-12-29T14:12:41.453Z,0.60
2022-12-29T14:15:11.180Z,0.60
2022-12-29T14:17:40.497Z,1.80
2022-12-29T14:20:22.235Z,0.60
2022-12-29T14:23:10.657Z,0.70
2022-12-29T14:25:59.798Z,0.60
2022-12-29T14:28:31.774Z,0.60
2022-12-29T14:31:00.808Z,0.53
2022-12-29T14:33:30.703Z,0.60
2022-12-29T14:35:58.425Z,0.60
2022-12-29T14:38:28.134Z,0.60
2022-12-29T14:41:37.653Z,0.50
2022-12-29T14:44:20.876Z,0.50
2022-12-29T14:47:02.638Z,0.50
2022-12-29T14:49:32.950Z,0.50
2022-12-29T14:52:23.821Z,0.50
2022-12-29T14:55:20.928Z,0.50
2022-12-29T14:57:59.380Z,0.50
2022-12-29T15:00:32.297Z,0.50
2022-12-29T15:03:23.545Z,0.60
2022-12-29T15:05:57.930Z,0.50
2022-12-29T15:08:32.821Z,0.57
2022-12-29T15:11:16.076Z,0.57
2022-12-29T15:13:44.397Z,0.70
2022-12-29T15:16:40.447Z,0.60
2022-12-29T15:19:22.617Z,0.60
2022-12-29T15:21:49.592Z,0.60
2022-12-29T15:24:16.342Z,0.60
2022-12-29T15:26:54.190Z,0.60
2022-12-29T15:29:41.046Z,0.57
2022-12-29T15:32:22.485Z,3.97
2022-12-29T15:34:51.998Z,0.97
2022-12-29T15:37:22.688Z,0.50
2022-12-29T15:39:49.803Z,1.53
2022-12-29T15:42:27.892Z,0.50
2022-12-29T15:45:09.279Z,0.60
2022-12-29T15:47:37.405Z,0.60
2022-12-29T15:50:09.648Z,0.60
2022-12-29T15:52:39.887Z,0.60
2022-12-29T15:55:10.745Z,0.50
2022-12-29T15:57:42.399Z,0.60
2022-12-29T16:00:30.605Z,0.97
2022-12-29T16:03:00.834Z,0.60
2022-12-29T16:05:34.612Z,0.60
2022-12-29T16:08:01.741Z,0.60
2022-12-29T16:10:37.424Z,0.60
2022-12-29T16:13:13.481Z,0.50
2022-12-29T16:15:40.186Z,0.60
2022-12-29T16:18:17.277Z,0.60
2022-12-29T16:20:44.104Z,1.33
2022-12-29T16:23:22.956Z,0.60
2022-12-29T16:25:49.636Z,0.97
2022-12-29T16:28:39.694Z,0.60
2022-12-29T16:31:16.118Z,0.60
2022-12-29T16:33:51.791Z,0.70
2022-12-29T16:36:34.355Z,0.70
2022-12-29T16:39:20.369Z,0.50
2022-12-29T16:41:46.982Z,0.60
2022-12-29T16:44:18.544Z,0.50
2022-12-29T16:47:12.974Z,0.60
2022-12-29T16:49:43.021Z,0.60
2022-12-29T16:52:18.073Z,0.60
2022-12-29T16:55:01.865Z,0.60
2022-12-29T16:57:36.354Z,0.60
2022-12-29T17:00:07.521Z,0.60
2022-12-29T17:02:46.060Z,0.60
2022-12-29T17:05:14.935Z,0.70
2022-12-29T17:07:41.645Z,0.50
2022-12-29T17:10:08.666Z,0.60
2022-12-29T17:12:36.501Z,0.70
2022-12-29T17:15:13.469Z,0.60
2022-12-29T17:17:50.903Z,0.53
2022-12-29T17:20:20.933Z,0.57
2022-12-29T17:22:48.521Z,0.60
2022-12-29T17:25:18.323Z,0.60
2022-12-29T17:27:50.597Z,1.07
2022-12-29T17:30:21.644Z,0.60
2022-12-29T17:32:54.539Z,0.90
2022-12-29T17:35:22.651Z,0.60
2022-12-29T17:37:50.016Z,0.70
2022-12-29T17:40:26.456Z,0.60
2022-12-29T17:42:55.981Z,0.60
2022-12-29T17:45:28.365Z,0.60
2022-12-29T17:47:55.936Z,1.63
2022-12-29T17:50:25.991Z,0.97
2022-12-29T17:53:00.427Z,0.73
2022-12-29T17:55:34.691Z,0.60
2022-12-29T17:58:17.059Z,0.60
2022-12-29T18:00:43.953Z,0.50
2022-12-29T18:03:19.051Z,1.00
2022-12-29T18:05:45.925Z,0.50
2022-12-29T18:08:12.755Z,0.60
2022-12-29T18:10:40.156Z,0.60
2022-12-29T18:13:06.902Z,3.13
2022-12-29T18:15:36.723Z,0.60
2022-12-29T18:18:18.061Z,4.13
2022-12-29T18:20:46.160Z,0.60
2022-12-29T18:23:20.272Z,1.63
2022-12-29T18:25:54.204Z,0.70
2022-12-29T18:28:21.264Z,0.67
2022-12-29T18:30:47.992Z,0.60
2022-12-29T18:33:21.910Z,0.50
2022-12-29T18:35:55.764Z,0.70
2022-12-29T18:38:22.519Z,0.70
2022-12-29T18:40:50.218Z,3.07
2022-12-29T18:43:18.059Z,2.53
2022-12-29T18:45:45.944Z,3.87
2022-12-29T18:48:13.554Z,2.00
2022-12-29T18:50:40.359Z,1.03
2022-12-29T18:53:07.066Z,2.70
2022-12-29T18:55:33.732Z,3.73
2022-12-29T18:58:00.358Z,2.73
2022-12-29T19:00:26.996Z,3.27
2022-12-29T19:02:53.675Z,5.60
2022-12-29T19:05:23.596Z,5.60
2022-12-29T19:07:51.333Z,7.63
2022-12-29T19:10:19.419Z,6.83
2022-12-29T19:12:46.206Z,6.13
2022-12-29T19:15:26.457Z,6.63
2022-12-29T19:18:24.110Z,10.10
2022-12-29T19:20:43.064Z,8.10
2022-12-29T19:23:21.651Z,8.37
2022-12-29T19:25:49.530Z,5.53
2022-12-29T19:28:24.885Z,5.23
2022-12-29T19:30:53.153Z,9.13
2022-12-29T19:33:21.303Z,6.23
2022-12-29T19:35:48.291Z,4.60
2022-12-29T19:38:15.282Z,6.87
2022-12-29T19:40:48.450Z,5.97
2022-12-29T19:43:15.608Z,4.97
2022-12-29T19:45:44.007Z,4.33
2022-12-29T19:48:19.003Z,6.70
2022-12-29T19:50:46.101Z,3.43
2022-12-29T19:53:13.400Z,6.03
2022-12-29T19:55:46.802Z,5.83
2022-12-29T19:58:13.940Z,8.83
2022-12-29T20:00:42.618Z,3.67
2022-12-29T20:03:09.815Z,3.60
2022-12-29T20:05:37.072Z,6.83
2022-12-29T20:08:03.714Z,5.63
2022-12-29T20:10:30.354Z,4.20
2022-12-29T20:12:56.961Z,7.20
2022-12-29T20:15:23.695Z,5.20
2022-12-29T20:20:37.041Z,2.30
2022-12-29T20:23:03.725Z,6.17
2022-12-29T20:25:47.182Z,3.30
2022-12-29T20:28:15.529Z,6.20
2022-12-29T20:30:42.190Z,8.83
2022-12-29T20:33:09.055Z,3.73
2022-12-29T20:35:37.359Z,4.50
2022-12-29T20:38:05.260Z,2.33
2022-12-29T20:40:32.157Z,3.23
2022-12-29T20:42:58.791Z,5.03
2022-12-29T20:45:25.766Z,5.17
2022-12-29T20:47:52.513Z,6.50
2022-12-29T20:50:19.101Z,3.40
2022-12-29T20:52:46.681Z,3.47
2022-12-29T20:55:13.358Z,4.60
2022-12-29T20:58:21.466Z,2.30
2022-12-29T21:00:26.951Z,3.63
2022-12-29T21:02:55.475Z,3.20
2022-12-29T21:05:24.873Z,3.07
2022-12-29T21:07:52.781Z,3.97
2022-12-29T21:10:19.815Z,4.57
2022-12-29T21:12:46.876Z,3.93
2022-12-29T21:15:15.341Z,1.00
2022-12-29T21:17:43.734Z,2.97
2022-12-29T21:20:19.661Z,2.93
2022-12-29T21:22:47.872Z,3.53
2022-12-29T21:25:14.694Z,3.43
2022-12-29T21:27:44.479Z,2.10
2022-12-29T21:30:12.296Z,4.00
2022-12-29T21:32:39.767Z,2.20
2022-12-29T21:35:07.467Z,2.50
2022-12-29T21:37:34.448Z,2.97
2022-12-29T21:40:01.229Z,1.10
2022-12-29T21:42:27.872Z,4.63
2022-12-29T21:45:19.833Z,1.50
2022-12-29T21:48:05.766Z,2.17
2022-12-29T21:50:32.490Z,1.60
2022-12-29T21:52:59.158Z,1.33
2022-12-29T21:55:25.759Z,3.20
2022-12-29T21:58:10.941Z,4.70
2022-12-29T22:00:55.908Z,2.37
2022-12-29T22:03:41.260Z,2.60
2022-12-29T22:06:29.246Z,1.70
2022-12-29T22:09:14.522Z,2.60
2022-12-29T22:11:59.951Z,1.33
2022-12-29T22:14:26.541Z,2.33
2022-12-29T22:16:53.110Z,2.33
2022-12-29T22:19:19.738Z,1.77
2022-12-29T22:21:46.385Z,2.60
2022-12-29T22:24:13.010Z,1.37
2022-12-29T22:26:39.662Z,0.67
2022-12-29T22:29:06.292Z,1.80
2022-12-29T22:31:33.628Z,2.00
2022-12-29T22:34:02.835Z,1.43
2022-12-29T22:36:30.280Z,1.10
2022-12-29T22:38:57.055Z,1.33
2022-12-29T22:41:23.714Z,1.50
2022-12-29T22:43:50.292Z,0.87
2022-12-29T22:46:16.926Z,1.63
2022-12-29T22:48:43.594Z,0.97
2022-12-29T22:51:10.188Z,0.90
2022-12-29T22:53:36.774Z,1.40
2022-12-29T22:56:08.031Z,1.00
2022-12-29T22:58:34.993Z,1.07
2022-12-29T23:01:02.535Z,2.50
2022-12-29T23:03:29.255Z,1.27
2022-12-29T23:06:00.808Z,2.07
2022-12-29T23:08:37.309Z,1.57
2022-12-29T23:11:05.593Z,1.97
2022-12-29T23:13:32.561Z,1.23
2022-12-29T23:15:59.442Z,2.13
2022-12-29T23:18:26.992Z,0.90
2022-12-29T23:20:53.632Z,0.70
2022-12-29T23:23:46.256Z,0.83
2022-12-29T23:26:16.311Z,1.10
2022-12-29T23:28:42.965Z,3.57
2022-12-29T23:31:09.776Z,1.27
2022-12-29T23:33:36.859Z,1.20
2022-12-29T23:36:04.301Z,2.40
2022-12-29T23:38:31.006Z,1.03
2022-12-29T23:40:57.661Z,1.20
2022-12-29T23:43:24.295Z,0.73
2022-12-29T23:45:51.415Z,1.53
2022-12-29T23:48:18.769Z,1.33
2022-12-29T23:50:45.677Z,0.50
2022-12-29T23:53:12.721Z,1.27
2022-12-29T23:55:42.479Z,1.97
2022-12-29T23:58:09.783Z,1.23
